createdAt,value
2023-03-23T16:00:03.902Z,36.50
2023-03-23T16:02:49.057Z,37.28
2023-03-23T16:05:34.141Z,37.63
2023-03-23T16:08:18.982Z,36.53
2023-03-23T16:11:03.914Z,36.53
2023-03-23T16:13:48.583Z,36.63
2023-03-23T16:16:33.525Z,36.72
2023-03-23T16:19:18.373Z,36.51
2023-03-23T16:22:03.198Z,38.28
2023-03-23T16:24:48.166Z,37.79
2023-03-23T16:27:33.247Z,38.94
2023-03-23T16:30:18.375Z,39.45
2023-03-23T16:33:03.241Z,40.09
2023-03-23T16:35:48.148Z,40.24
2023-03-23T16:38:33.128Z,40.21
2023-03-23T16:41:34.331Z,41.09
2023-03-23T16:44:19.015Z,41.54
2023-03-23T16:47:03.880Z,41.74
2023-03-23T16:49:49.012Z,42.76
2023-03-23T16:52:33.563Z,43.06
2023-03-23T16:55:18.372Z,43.43
2023-03-23T16:58:15.473Z,43.10
2023-03-23T17:01:01.885Z,42.75
2023-03-23T17:03:47.116Z,42.96
2023-03-23T17:06:32.492Z,43.76
2023-03-23T17:09:17.502Z,44.21
2023-03-23T17:12:02.229Z,42.20
2023-03-23T17:14:47.241Z,42.82
2023-03-23T17:17:32.231Z,44.36
2023-03-23T17:20:16.940Z,44.01
2023-03-23T17:23:01.907Z,44.04
2023-03-23T17:25:46.761Z,43.25
2023-03-23T17:28:31.698Z,43.26
2023-03-23T17:31:16.841Z,42.54
2023-03-23T17:34:01.717Z,43.01
2023-03-23T17:36:46.780Z,42.82
2023-03-23T17:39:31.512Z,42.48
2023-03-23T17:42:16.298Z,43.30
2023-03-23T17:45:01.108Z,42.41
2023-03-23T17:47:45.973Z,43.25
2023-03-23T17:50:31.019Z,43.91
2023-03-23T17:53:15.936Z,44.70
2023-03-23T17:56:01.024Z,44.30
2023-03-23T17:58:45.711Z,44.24
2023-03-23T18:01:30.846Z,44.27
2023-03-23T18:04:15.753Z,44.73
2023-03-23T18:07:00.507Z,43.85
2023-03-23T18:09:45.788Z,43.96
2023-03-23T18:12:30.407Z,43.52
2023-03-23T18:15:15.075Z,44.19
2023-03-23T18:18:00.361Z,44.19
2023-03-23T18:20:45.107Z,43.88
2023-03-23T18:23:29.992Z,43.90
2023-03-23T18:26:14.959Z,43.77
2023-03-23T18:28:59.921Z,43.92
2023-03-23T18:31:45.041Z,44.04
2023-03-23T18:34:30.089Z,44.30
2023-03-23T18:37:14.843Z,44.64
2023-03-23T18:39:59.784Z,43.93
2023-03-23T18:42:44.787Z,43.83
2023-03-23T18:45:29.729Z,44.53
2023-03-23T18:48:14.364Z,44.41
2023-03-23T18:50:59.306Z,44.76
2023-03-23T18:53:44.070Z,44.56
2023-03-23T18:56:28.915Z,44.41
2023-03-23T18:59:13.923Z,44.46
2023-03-23T19:01:58.807Z,44.58
2023-03-23T19:04:43.721Z,44.76
2023-03-23T19:07:30.225Z,45.44
2023-03-23T19:10:15.333Z,46.34
2023-03-23T19:13:00.319Z,45.68
2023-03-23T19:15:45.462Z,45.40
2023-03-23T19:18:30.869Z,45.20
2023-03-23T19:21:18.696Z,45.15
2023-03-23T19:24:05.940Z,46.44
2023-03-23T19:26:51.079Z,45.48
2023-03-23T19:29:35.935Z,45.30
2023-03-23T19:32:20.952Z,45.64
2023-03-23T19:35:05.727Z,45.67
2023-03-23T19:37:50.658Z,45.59
2023-03-23T19:40:40.274Z,45.38
2023-03-23T19:43:27.624Z,45.46
2023-03-23T19:46:12.639Z,45.52
2023-03-23T19:48:57.432Z,45.76
2023-03-23T19:51:42.066Z,45.49
2023-03-23T19:54:27.240Z,46.43
2023-03-23T19:57:12.209Z,46.34
2023-03-23T19:59:59.154Z,46.76
2023-03-23T20:02:44.313Z,46.64
2023-03-23T20:05:29.538Z,46.83
2023-03-23T20:08:16.128Z,46.50
2023-03-23T20:11:01.641Z,46.63
2023-03-23T20:13:47.037Z,46.37
2023-03-23T20:16:33.429Z,46.44
2023-03-23T20:19:18.385Z,46.14
2023-03-23T20:22:03.351Z,46.92
2023-03-23T20:24:48.325Z,46.70
2023-03-23T20:27:33.503Z,46.03
2023-03-23T20:30:18.294Z,45.95
2023-03-23T20:33:03.423Z,46.24
2023-03-23T20:35:48.537Z,46.06
2023-03-23T20:38:33.765Z,45.97
2023-03-23T20:41:18.800Z,45.94
2023-03-23T20:44:03.859Z,45.65
2023-03-23T20:46:48.748Z,46.34
2023-03-23T20:49:33.556Z,45.41
2023-03-23T20:52:18.380Z,45.35
2023-03-23T20:55:03.208Z,45.37
2023-03-23T20:57:48.125Z,46.04
2023-03-23T21:00:33.025Z,45.69
2023-03-23T21:03:17.905Z,45.63
2023-03-23T21:06:02.890Z,45.72
2023-03-23T21:08:47.672Z,45.78
2023-03-23T21:11:32.720Z,45.71
2023-03-23T21:14:17.654Z,45.88
2023-03-23T21:17:02.744Z,45.70
2023-03-23T21:19:47.442Z,45.53
2023-03-23T21:22:32.365Z,45.57
2023-03-23T21:25:17.290Z,45.84
2023-03-23T21:28:02.164Z,45.85
2023-03-23T21:30:47.621Z,45.13
2023-03-23T21:33:32.805Z,45.00
2023-03-23T21:36:17.886Z,45.10
2023-03-23T21:39:02.906Z,45.38
2023-03-23T21:41:47.717Z,44.81
2023-03-23T21:44:32.516Z,45.14
2023-03-23T21:47:17.394Z,45.47
2023-03-23T21:50:02.442Z,45.32
2023-03-23T21:52:46.981Z,45.55
2023-03-23T21:55:31.946Z,45.08
2023-03-23T21:58:16.806Z,45.06
2023-03-23T22:01:01.668Z,45.41
2023-03-23T22:03:46.470Z,45.08
2023-03-23T22:06:31.514Z,45.66
2023-03-23T22:09:16.317Z,45.51
2023-03-23T22:12:01.153Z,46.06
2023-03-23T22:14:46.075Z,46.12
2023-03-23T22:17:30.820Z,45.96
2023-03-23T22:20:15.838Z,46.09
2023-03-23T22:23:00.813Z,45.97
2023-03-23T22:25:46.017Z,46.47
2023-03-23T22:28:30.862Z,46.83
2023-03-23T22:31:15.970Z,47.07
2023-03-23T22:34:00.751Z,46.13
2023-03-23T22:36:45.691Z,46.22
2023-03-23T22:39:30.666Z,46.77
2023-03-23T22:42:15.564Z,47.50
2023-03-23T22:45:00.622Z,48.23
2023-03-23T22:47:45.557Z,48.21
2023-03-23T22:50:30.506Z,49.45
2023-03-23T22:53:15.373Z,49.79
2023-03-23T22:56:00.251Z,49.96
2023-03-23T22:58:45.025Z,50.39
2023-03-23T23:01:30.086Z,50.69
2023-03-23T23:04:14.974Z,51.60
2023-03-23T23:07:12.044Z,51.62
2023-03-23T23:09:57.900Z,50.96
2023-03-23T23:12:42.774Z,50.39
2023-03-23T23:15:27.812Z,49.88
2023-03-23T23:18:12.931Z,49.85
2023-03-23T23:20:57.991Z,50.22
2023-03-23T23:23:42.744Z,50.32
2023-03-23T23:26:27.729Z,49.88
2023-03-23T23:29:12.986Z,50.13
2023-03-23T23:31:57.964Z,50.16
2023-03-23T23:34:42.688Z,50.11
2023-03-23T23:37:27.637Z,50.48
2023-03-23T23:40:12.669Z,50.54
2023-03-23T23:42:57.618Z,51.16
2023-03-23T23:45:42.678Z,50.91
2023-03-23T23:48:27.310Z,50.73
2023-03-23T23:51:12.161Z,50.97
2023-03-23T23:53:57.162Z,50.36
2023-03-23T23:56:41.992Z,50.82
2023-03-23T23:59:26.831Z,50.71
